createdAt,value
2018-12-17T00:01:25.574Z,0.40
2018-12-17T00:03:57.630Z,0.40
2018-12-17T00:06:29.487Z,0.50
2018-12-17T00:08:59.354Z,0.50
2018-12-17T00:11:29.110Z,0.50
2018-12-17T00:14:00.109Z,0.50
2018-12-17T00:16:29.974Z,0.40
2018-12-17T00:18:59.821Z,0.40
2018-12-17T00:21:29.674Z,0.40
2018-12-17T00:23:59.575Z,0.40
2018-12-17T00:26:29.398Z,0.40
2018-12-17T00:28:59.123Z,0.40
2018-12-17T00:31:28.903Z,0.40
2018-12-17T00:33:58.606Z,0.40
2018-12-17T00:36:28.485Z,0.40
2018-12-17T00:38:58.181Z,0.40
2018-12-17T00:41:27.995Z,0.30
2018-12-17T00:43:57.820Z,0.40
2018-12-17T00:46:27.676Z,0.40
2018-12-17T00:48:57.494Z,0.40
2018-12-17T00:51:27.178Z,0.40
2018-12-17T00:53:56.945Z,0.30
2018-12-17T00:56:26.696Z,0.30
2018-12-17T00:58:56.334Z,0.20
2018-12-17T01:01:26.523Z,0.20
2018-12-17T01:03:56.210Z,0.20
2018-12-17T01:06:26.126Z,0.30
2018-12-17T01:08:55.950Z,0.30
2018-12-17T01:11:25.720Z,0.30
2018-12-17T01:13:55.597Z,0.30
2018-12-17T01:16:26.547Z,0.30
2018-12-17T01:18:56.430Z,0.20
2018-12-17T01:21:26.721Z,0.20
2018-12-17T01:23:56.370Z,0.20
2018-12-17T01:26:26.721Z,0.20
2018-12-17T01:28:56.500Z,0.20
2018-12-17T01:31:26.195Z,0.20
2018-12-17T01:33:55.968Z,0.10
2018-12-17T01:36:25.810Z,0.10
2018-12-17T01:38:55.459Z,0.00
2018-12-17T01:41:25.623Z,0.00
2018-12-17T01:43:55.478Z,0.00
2018-12-17T01:46:25.190Z,0.10
2018-12-17T01:48:54.867Z,0.20
2018-12-17T01:51:24.561Z,0.20
2018-12-17T01:53:54.273Z,0.20
2018-12-17T01:56:30.647Z,0.10
2018-12-17T01:59:00.358Z,0.20
2018-12-17T02:01:30.152Z,0.20
2018-12-17T02:03:59.907Z,0.20
2018-12-17T02:06:29.709Z,0.20
2018-12-17T02:08:59.382Z,0.30
2018-12-17T02:11:29.083Z,0.30
2018-12-17T02:13:58.796Z,0.30
2018-12-17T02:16:28.672Z,0.20
2018-12-17T02:18:58.435Z,0.20
2018-12-17T02:21:28.162Z,0.10
2018-12-17T02:23:57.896Z,0.10
2018-12-17T02:26:27.767Z,0.10
2018-12-17T02:28:57.609Z,0.00
2018-12-17T02:31:27.355Z,0.00
2018-12-17T02:33:57.117Z,0.00
2018-12-17T02:36:26.789Z,0.00
2018-12-17T02:38:56.406Z,0.10
2018-12-17T02:41:25.996Z,0.20
2018-12-17T02:43:55.904Z,0.20
2018-12-17T02:46:25.517Z,0.30
2018-12-17T02:48:55.268Z,0.30
2018-12-17T02:51:24.941Z,0.30
2018-12-17T02:53:54.639Z,0.20
2018-12-17T02:56:24.310Z,0.20
2018-12-17T02:58:53.958Z,0.20
2018-12-17T03:01:23.517Z,0.10
2018-12-17T03:03:53.229Z,0.10
2018-12-17T03:06:22.854Z,0.10
2018-12-17T03:08:52.529Z,0.10
2018-12-17T03:11:22.228Z,0.10
2018-12-17T03:13:52.006Z,0.10
2018-12-17T03:16:21.643Z,0.10
2018-12-17T03:18:51.338Z,0.10
2018-12-17T03:21:21.052Z,0.10
2018-12-17T03:23:50.838Z,0.10
2018-12-17T03:26:20.527Z,0.20
2018-12-17T03:28:51.804Z,0.10
2018-12-17T03:31:21.906Z,0.10
2018-12-17T03:33:51.593Z,0.20
2018-12-17T03:36:21.328Z,0.20
2018-12-17T03:38:50.992Z,0.20
2018-12-17T03:41:20.694Z,0.10
2018-12-17T03:43:50.398Z,0.10
2018-12-17T03:46:20.061Z,0.00
2018-12-17T03:48:49.789Z,0.10
2018-12-17T03:51:19.707Z,0.10
2018-12-17T03:53:49.437Z,0.10
2018-12-17T03:56:19.166Z,0.10
2018-12-17T03:58:48.899Z,0.10
2018-12-17T04:01:18.637Z,0.10
2018-12-17T04:03:48.349Z,0.10
2018-12-17T04:06:17.989Z,0.10
2018-12-17T04:08:47.696Z,0.10
2018-12-17T04:11:17.445Z,0.00
2018-12-17T04:13:47.454Z,0.00
2018-12-17T04:16:17.250Z,0.00
2018-12-17T04:18:46.972Z,0.00
2018-12-17T04:21:17.063Z,0.00
2018-12-17T04:23:46.795Z,0.00
2018-12-17T04:26:18.592Z,0.00
2018-12-17T04:28:48.344Z,0.00
2018-12-17T04:31:18.064Z,0.00
2018-12-17T04:33:48.159Z,0.00
2018-12-17T04:36:18.988Z,-0.10
2018-12-17T04:38:48.762Z,-0.20
2018-12-17T04:41:18.673Z,-0.20
2018-12-17T04:43:48.560Z,-0.30
2018-12-17T04:46:18.460Z,-0.30
2018-12-17T04:48:48.261Z,-0.30
2018-12-17T04:51:18.298Z,-0.30
2018-12-17T04:53:48.031Z,-0.30
2018-12-17T04:56:17.856Z,-0.20
2018-12-17T04:58:47.839Z,-0.20
2018-12-17T05:01:17.683Z,-0.10
2018-12-17T05:03:47.584Z,-0.10
2018-12-17T05:06:17.482Z,0.00
2018-12-17T05:08:47.400Z,0.00
2018-12-17T05:11:17.331Z,0.10
2018-12-17T05:13:47.084Z,0.20
2018-12-17T05:16:17.026Z,0.20
2018-12-17T05:18:47.084Z,0.30
2018-12-17T05:21:16.966Z,0.30
2018-12-17T05:23:46.811Z,0.30
2018-12-17T05:26:16.485Z,0.20
2018-12-17T05:28:46.303Z,0.20
2018-12-17T05:31:16.231Z,0.30
2018-12-17T05:33:46.017Z,0.30
2018-12-17T05:36:15.880Z,0.30
2018-12-17T05:38:45.565Z,0.40
2018-12-17T05:41:15.529Z,0.40
2018-12-17T05:43:45.547Z,0.40
2018-12-17T05:46:15.471Z,0.50
2018-12-17T05:48:45.465Z,0.50
2018-12-17T05:51:15.268Z,0.50
2018-12-17T05:53:45.096Z,0.60
2018-12-17T05:56:15.181Z,0.50
2018-12-17T05:58:44.931Z,0.50
2018-12-17T06:01:14.718Z,0.50
2018-12-17T06:03:44.503Z,0.50
2018-12-17T06:06:14.297Z,0.50
2018-12-17T06:08:44.134Z,0.40
2018-12-17T06:11:14.183Z,0.40
2018-12-17T06:13:44.146Z,0.40
2018-12-17T06:16:13.977Z,0.30
2018-12-17T06:18:43.987Z,0.20
2018-12-17T06:21:14.873Z,0.20
2018-12-17T06:23:44.928Z,0.10
2018-12-17T06:26:14.818Z,0.10
2018-12-17T06:28:44.771Z,0.10
2018-12-17T06:31:14.758Z,0.10
2018-12-17T06:33:44.573Z,0.20
2018-12-17T06:36:14.455Z,0.20
2018-12-17T06:38:44.333Z,0.20
2018-12-17T06:41:14.243Z,0.30
2018-12-17T06:43:44.222Z,0.30
2018-12-17T06:46:14.199Z,0.40
2018-12-17T06:48:44.053Z,0.30
2018-12-17T06:51:14.052Z,0.30
2018-12-17T06:53:44.153Z,0.30
2018-12-17T06:56:15.014Z,0.20
2018-12-17T06:58:45.073Z,0.20
2018-12-17T07:01:15.026Z,0.20
2018-12-17T07:03:45.016Z,0.10
2018-12-17T07:06:15.235Z,0.10
2018-12-17T07:08:45.497Z,0.00
2018-12-17T07:11:15.643Z,0.00
2018-12-17T07:13:45.693Z,-0.10
2018-12-17T07:16:15.668Z,-0.10
2018-12-17T07:18:45.628Z,-0.20
2018-12-17T07:21:15.760Z,-0.20
2018-12-17T07:23:45.885Z,-0.30
2018-12-17T07:26:15.823Z,-0.30
2018-12-17T07:28:45.779Z,-0.20
2018-12-17T07:31:15.828Z,-0.20
2018-12-17T07:33:45.784Z,-0.10
2018-12-17T07:36:15.953Z,-0.10
2018-12-17T07:38:45.709Z,-0.10
2018-12-17T07:41:15.605Z,0.00
2018-12-17T07:43:45.345Z,0.00
2018-12-17T07:46:15.202Z,0.00
2018-12-17T07:48:44.947Z,0.00
2018-12-17T07:51:14.916Z,0.10
2018-12-17T07:53:44.868Z,0.10
2018-12-17T07:56:14.685Z,0.10
2018-12-17T07:58:44.581Z,0.20
2018-12-17T08:01:14.393Z,0.30
2018-12-17T08:03:44.124Z,0.40
2018-12-17T08:06:13.879Z,0.50
2018-12-17T08:08:43.486Z,0.60
2018-12-17T08:11:13.333Z,0.70
2018-12-17T08:13:43.394Z,0.80
2018-12-17T08:16:13.225Z,0.90
2018-12-17T08:18:43.087Z,1.00
2018-12-17T08:21:12.870Z,1.00
2018-12-17T08:23:42.570Z,1.00
2018-12-17T08:26:19.036Z,0.90
2018-12-17T08:28:49.060Z,0.90
2018-12-17T08:31:18.946Z,0.80
2018-12-17T08:33:48.810Z,0.70
2018-12-17T08:36:18.724Z,0.70
2018-12-17T08:38:49.678Z,0.60
2018-12-17T08:41:19.484Z,0.60
2018-12-17T08:43:49.202Z,0.60
2018-12-17T08:46:20.111Z,0.60
2018-12-17T08:48:50.002Z,0.60
2018-12-17T08:51:19.904Z,0.60
2018-12-17T08:53:49.637Z,0.60
2018-12-17T08:56:19.436Z,0.60
2018-12-17T08:58:49.201Z,0.60
2018-12-17T09:01:18.894Z,0.60
2018-12-17T09:03:48.971Z,0.70
2018-12-17T09:06:19.056Z,0.60
2018-12-17T09:08:48.726Z,0.60
2018-12-17T09:11:18.693Z,0.60
2018-12-17T09:13:48.504Z,0.60
2018-12-17T09:16:18.324Z,0.70
2018-12-17T09:18:48.197Z,0.70
2018-12-17T09:21:18.195Z,0.70
2018-12-17T09:23:47.963Z,0.70
2018-12-17T09:26:17.659Z,0.80
2018-12-17T09:28:47.560Z,0.90
2018-12-17T09:31:17.277Z,0.90
2018-12-17T09:33:47.070Z,0.90
2018-12-17T09:36:16.910Z,0.90
2018-12-17T09:38:46.741Z,0.80
2018-12-17T09:41:16.685Z,0.80
2018-12-17T09:43:46.546Z,0.70
2018-12-17T09:46:16.410Z,0.70
2018-12-17T09:48:46.238Z,0.80
2018-12-17T09:51:19.585Z,0.80
2018-12-17T09:53:48.276Z,0.80
2018-12-17T09:56:18.298Z,0.90
2018-12-17T09:58:48.370Z,0.90
2018-12-17T10:01:18.288Z,0.90
2018-12-17T10:03:48.296Z,0.90
2018-12-17T10:06:18.442Z,1.00
2018-12-17T10:08:48.344Z,1.00
2018-12-17T10:11:18.164Z,1.10
2018-12-17T10:13:48.212Z,1.20
2018-12-17T10:16:18.132Z,1.30
2018-12-17T10:18:48.278Z,1.30
2018-12-17T10:21:18.270Z,1.40
2018-12-17T10:23:48.650Z,1.50
2018-12-17T10:26:18.676Z,1.40
2018-12-17T10:28:48.684Z,1.50
2018-12-17T10:31:18.541Z,1.40
2018-12-17T10:33:48.413Z,1.40
2018-12-17T10:36:18.248Z,1.40
2018-12-17T10:38:48.154Z,1.50
2018-12-17T10:41:18.174Z,1.50
2018-12-17T10:43:50.026Z,1.50
2018-12-17T10:46:19.864Z,1.60
2018-12-17T10:48:49.808Z,1.60
2018-12-17T10:51:19.913Z,1.60
2018-12-17T10:53:49.774Z,1.60
2018-12-17T10:56:19.880Z,1.60
2018-12-17T10:58:49.695Z,1.70
2018-12-17T11:01:24.826Z,1.80
2018-12-17T11:03:58.935Z,1.80
2018-12-17T11:06:28.888Z,1.90
2018-12-17T11:08:59.131Z,1.90
2018-12-17T11:11:29.105Z,1.90
2018-12-17T11:13:59.164Z,1.80
2018-12-17T11:16:29.065Z,1.80
2018-12-17T11:18:58.934Z,1.80
2018-12-17T11:21:29.018Z,1.80
2018-12-17T11:23:58.989Z,1.90
2018-12-17T11:26:28.872Z,1.90
2018-12-17T11:28:58.750Z,1.90
2018-12-17T11:31:28.495Z,1.90
2018-12-17T11:33:58.228Z,1.80
2018-12-17T11:36:28.109Z,1.80
2018-12-17T11:38:58.330Z,1.90
2018-12-17T11:41:33.235Z,1.90
2018-12-17T11:44:04.070Z,1.80
2018-12-17T11:46:34.026Z,1.80
2018-12-17T11:49:03.718Z,1.80
2018-12-17T11:51:33.649Z,1.80
2018-12-17T11:54:04.002Z,1.90
2018-12-17T11:56:47.281Z,2.00
2018-12-17T11:59:17.197Z,2.10
2018-12-17T12:01:49.517Z,2.20
2018-12-17T12:04:19.529Z,2.20
2018-12-17T12:06:49.341Z,2.30
2018-12-17T12:09:23.390Z,2.30
2018-12-17T12:11:53.234Z,2.30
2018-12-17T12:14:23.036Z,2.30
2018-12-17T12:16:52.694Z,2.30
2018-12-17T12:19:24.432Z,2.20
2018-12-17T12:21:55.187Z,2.10
2018-12-17T12:24:25.094Z,2.00
2018-12-17T12:26:54.929Z,2.00
2018-12-17T12:29:24.684Z,1.90
2018-12-17T12:31:54.686Z,1.90
2018-12-17T12:34:24.774Z,1.90
2018-12-17T12:36:54.663Z,1.90
2018-12-17T12:39:24.534Z,1.80
2018-12-17T12:41:54.404Z,1.80
2018-12-17T12:44:24.146Z,1.90
2018-12-17T12:46:54.034Z,1.90
2018-12-17T12:49:23.940Z,1.90
2018-12-17T12:51:54.095Z,1.90
2018-12-17T12:54:24.034Z,1.90
2018-12-17T12:56:53.802Z,1.90
2018-12-17T12:59:23.669Z,1.80
2018-12-17T13:01:53.614Z,1.80
2018-12-17T13:04:23.488Z,1.80
2018-12-17T13:06:53.646Z,1.80
2018-12-17T13:09:23.693Z,1.70
2018-12-17T13:11:53.614Z,1.70
2018-12-17T13:14:23.594Z,1.60
2018-12-17T13:16:53.651Z,1.60
2018-12-17T13:19:23.609Z,1.60
2018-12-17T13:21:53.568Z,1.60
2018-12-17T13:24:23.820Z,1.60
2018-12-17T13:26:53.745Z,1.50
2018-12-17T13:29:23.619Z,1.50
2018-12-17T13:31:53.530Z,1.50
2018-12-17T13:34:23.499Z,1.50
2018-12-17T13:36:53.499Z,1.50
2018-12-17T13:39:23.556Z,1.40
2018-12-17T13:41:53.506Z,1.30
2018-12-17T13:44:23.499Z,1.30
2018-12-17T13:46:53.459Z,1.20
2018-12-17T13:49:23.717Z,1.20
2018-12-17T13:51:59.093Z,1.20
2018-12-17T13:54:29.090Z,1.10
2018-12-17T13:56:59.193Z,1.00
2018-12-17T13:59:29.159Z,1.00
2018-12-17T14:01:59.246Z,1.00
2018-12-17T14:04:29.259Z,0.80
2018-12-17T14:06:59.321Z,0.80
2018-12-17T14:09:29.409Z,0.80
2018-12-17T14:11:59.321Z,0.80
2018-12-17T14:14:29.500Z,0.80
2018-12-17T14:17:04.563Z,0.80
2018-12-17T14:19:34.434Z,0.70
2018-12-17T14:22:07.761Z,0.70
2018-12-17T14:24:37.751Z,0.60
2018-12-17T14:27:08.779Z,0.60
2018-12-17T14:29:38.890Z,0.60
2018-12-17T14:32:09.019Z,0.60
2018-12-17T14:34:39.554Z,0.60
2018-12-17T14:37:09.653Z,0.60
2018-12-17T14:39:39.604Z,0.60
2018-12-17T14:42:10.718Z,0.50
2018-12-17T14:44:41.267Z,0.50
2018-12-17T14:47:11.241Z,0.50
2018-12-17T14:49:41.266Z,0.50
2018-12-17T14:52:11.336Z,0.50
2018-12-17T14:54:41.496Z,0.40
2018-12-17T14:57:11.558Z,0.40
2018-12-17T14:59:41.777Z,0.40
2018-12-17T15:02:12.409Z,0.40
2018-12-17T15:04:42.647Z,0.40
2018-12-17T15:07:12.615Z,0.40
2018-12-17T15:09:42.668Z,0.40
2018-12-17T15:12:13.596Z,0.40
2018-12-17T15:14:44.084Z,0.40
2018-12-17T15:17:14.177Z,0.40
2018-12-17T15:19:44.286Z,0.30
2018-12-17T15:22:14.290Z,0.40
2018-12-17T15:24:44.468Z,0.30
2018-12-17T15:27:14.441Z,0.30
2018-12-17T15:29:44.545Z,0.30
2018-12-17T15:32:14.615Z,0.30
2018-12-17T15:34:45.447Z,0.30
2018-12-17T15:37:16.526Z,0.30
2018-12-17T15:39:46.616Z,0.30
2018-12-17T15:42:16.434Z,0.30
2018-12-17T15:44:46.338Z,0.30
2018-12-17T15:47:16.258Z,0.30
2018-12-17T15:49:46.479Z,0.30
2018-12-17T15:52:16.195Z,0.30
2018-12-17T15:54:46.132Z,0.30
2018-12-17T15:57:16.030Z,0.30
2018-12-17T15:59:45.923Z,0.20
2018-12-17T16:02:15.699Z,0.10
2018-12-17T16:04:45.733Z,0.10
2018-12-17T16:07:15.661Z,0.00
2018-12-17T16:09:45.546Z,0.00
2018-12-17T16:12:16.732Z,0.10
2018-12-17T16:14:46.908Z,0.10
2018-12-17T16:17:16.821Z,0.20
2018-12-17T16:19:46.675Z,0.20
2018-12-17T16:22:16.615Z,0.30
2018-12-17T16:24:46.445Z,0.30
2018-12-17T16:27:19.480Z,0.30
2018-12-17T16:29:48.092Z,0.30
2018-12-17T16:32:18.025Z,0.20
2018-12-17T16:34:47.941Z,0.10
2018-12-17T16:37:17.968Z,0.10
2018-12-17T16:39:47.982Z,0.00
2018-12-17T16:42:17.946Z,0.00
2018-12-17T16:44:47.845Z,0.00
2018-12-17T16:47:18.209Z,0.00
2018-12-17T16:49:48.201Z,0.10
2018-12-17T16:52:18.322Z,0.10
2018-12-17T16:54:48.335Z,0.10
2018-12-17T16:57:18.445Z,0.20
2018-12-17T16:59:48.401Z,0.20
2018-12-17T17:02:18.655Z,0.20
2018-12-17T17:04:48.748Z,0.30
2018-12-17T17:07:18.690Z,0.30
2018-12-17T17:09:48.786Z,0.30
2018-12-17T17:12:18.905Z,0.30
2018-12-17T17:14:51.724Z,0.30
2018-12-17T17:17:21.668Z,0.20
2018-12-17T17:19:51.773Z,0.20
2018-12-17T17:22:21.921Z,0.00
2018-12-17T17:24:52.020Z,-0.10
2018-12-17T17:27:22.035Z,-0.10
2018-12-17T17:29:52.086Z,-0.10
2018-12-17T17:32:22.179Z,-0.10
2018-12-17T17:34:52.085Z,0.00
2018-12-17T17:37:22.251Z,0.00
2018-12-17T17:39:52.166Z,0.00
2018-12-17T17:42:22.329Z,0.10
2018-12-17T17:44:52.485Z,0.10
2018-12-17T17:47:22.561Z,0.20
2018-12-17T17:49:52.351Z,0.10
2018-12-17T17:52:22.234Z,0.10
2018-12-17T17:54:52.284Z,0.10
2018-12-17T17:57:22.234Z,0.10
2018-12-17T17:59:52.210Z,0.20
2018-12-17T18:02:22.208Z,0.20
2018-12-17T18:04:52.125Z,0.10
2018-12-17T18:07:28.560Z,0.20
2018-12-17T18:10:23.028Z,0.20
2018-12-17T18:13:08.976Z,0.20
2018-12-17T18:15:46.833Z,0.20
2018-12-17T18:18:16.660Z,0.30
2018-12-17T18:23:55.919Z,0.40
2018-12-17T18:26:35.737Z,0.40
2018-12-17T18:29:06.750Z,0.50
2018-12-17T18:31:37.376Z,0.50
2018-12-17T18:34:07.175Z,0.50
2018-12-17T18:36:37.008Z,0.50
2018-12-17T18:39:08.620Z,0.50
2018-12-17T18:41:40.448Z,0.50
2018-12-17T18:44:10.347Z,0.50
2018-12-17T18:46:42.983Z,0.40
2018-12-17T18:49:12.711Z,0.30
2018-12-17T18:51:42.703Z,0.30
2018-12-17T18:54:12.608Z,0.30
2018-12-17T18:56:42.574Z,0.30
2018-12-17T18:59:12.738Z,0.30
2018-12-17T19:01:42.718Z,0.30
2018-12-17T19:04:12.722Z,0.40
2018-12-17T19:06:42.711Z,0.40
2018-12-17T19:09:12.762Z,0.40
2018-12-17T19:11:43.243Z,0.40
2018-12-17T19:14:14.025Z,0.30
2018-12-17T19:16:44.274Z,0.30
2018-12-17T19:19:14.424Z,0.40
2018-12-17T19:21:44.248Z,0.40
2018-12-17T19:24:15.440Z,0.40
2018-12-17T19:26:45.493Z,0.40
2018-12-17T19:29:15.688Z,0.40
2018-12-17T19:31:45.721Z,0.40
2018-12-17T19:34:15.851Z,0.50
2018-12-17T19:36:45.745Z,0.50
2018-12-17T19:39:15.781Z,0.50
2018-12-17T19:41:47.957Z,0.50
2018-12-17T19:44:18.023Z,0.60
2018-12-17T19:46:48.153Z,0.50
2018-12-17T19:49:18.361Z,0.50
2018-12-17T19:51:48.312Z,0.50
2018-12-17T19:54:18.225Z,0.50
2018-12-17T19:56:48.326Z,0.50
2018-12-17T19:59:19.443Z,0.50
2018-12-17T20:01:49.412Z,0.50
2018-12-17T20:04:19.465Z,0.40
2018-12-17T20:06:49.399Z,0.40
2018-12-17T20:09:19.579Z,0.40
2018-12-17T20:11:49.510Z,0.50
2018-12-17T20:14:19.535Z,0.50
2018-12-17T20:16:49.667Z,0.50
2018-12-17T20:19:19.697Z,0.50
2018-12-17T20:21:49.870Z,0.50
2018-12-17T20:24:20.028Z,0.50
2018-12-17T20:26:50.168Z,0.40
2018-12-17T20:29:20.552Z,0.40
2018-12-17T20:31:50.735Z,0.40
2018-12-17T20:34:20.877Z,0.50
2018-12-17T20:36:50.934Z,0.50
2018-12-17T20:39:21.017Z,0.50
2018-12-17T20:41:51.164Z,0.50
2018-12-17T20:44:21.204Z,0.50
2018-12-17T20:46:51.297Z,0.50
2018-12-17T20:49:21.371Z,0.50
2018-12-17T20:51:51.385Z,0.50
2018-12-17T20:54:21.390Z,0.50
2018-12-17T20:56:51.346Z,0.50
2018-12-17T20:59:21.340Z,0.40
2018-12-17T21:01:51.388Z,0.40
2018-12-17T21:04:21.330Z,0.50
2018-12-17T21:06:51.326Z,0.50
2018-12-17T21:09:21.333Z,0.50
2018-12-17T21:11:52.608Z,0.50
2018-12-17T21:14:23.870Z,0.50
2018-12-17T21:16:54.042Z,0.40
2018-12-17T21:19:23.991Z,0.40
2018-12-17T21:21:53.911Z,0.40
2018-12-17T21:24:23.998Z,0.40
2018-12-17T21:26:53.958Z,0.50
2018-12-17T21:29:24.282Z,0.50
2018-12-17T21:31:54.237Z,0.50
2018-12-17T21:34:24.338Z,0.50
2018-12-17T21:36:54.346Z,0.50
2018-12-17T21:39:24.297Z,0.50
2018-12-17T21:41:54.298Z,0.50
2018-12-17T21:44:24.332Z,0.40
2018-12-17T21:46:54.300Z,0.40
2018-12-17T21:49:24.111Z,0.30
2018-12-17T21:51:54.191Z,0.30
2018-12-17T21:54:24.141Z,0.30
2018-12-17T21:56:54.121Z,0.30
2018-12-17T21:59:24.312Z,0.30
2018-12-17T22:01:54.298Z,0.20
2018-12-17T22:04:24.896Z,0.10
2018-12-17T22:06:55.114Z,0.10
2018-12-17T22:09:25.352Z,0.00
2018-12-17T22:11:55.611Z,0.00
2018-12-17T22:14:25.534Z,-0.10
2018-12-17T22:17:00.089Z,-0.10
2018-12-17T22:19:33.599Z,0.00
2018-12-17T22:22:03.621Z,0.00
2018-12-17T22:24:33.733Z,-0.10
2018-12-17T22:27:03.598Z,-0.10
2018-12-17T22:29:33.622Z,-0.10
2018-12-17T22:32:03.754Z,-0.10
2018-12-17T22:34:33.739Z,-0.10
2018-12-17T22:37:04.007Z,-0.10
2018-12-17T22:39:36.881Z,-0.10
2018-12-17T22:42:06.831Z,-0.10
2018-12-17T22:44:36.883Z,-0.10
2018-12-17T22:47:06.782Z,-0.10
2018-12-17T22:49:36.853Z,-0.10
2018-12-17T22:52:06.964Z,0.00
2018-12-17T22:54:36.946Z,0.00
2018-12-17T22:57:06.873Z,0.00
2018-12-17T22:59:36.936Z,0.10
2018-12-17T23:02:06.906Z,0.10
2018-12-17T23:04:36.889Z,0.10
2018-12-17T23:07:06.793Z,0.20
2018-12-17T23:09:47.702Z,0.30
2018-12-17T23:12:28.481Z,0.30
2018-12-17T23:15:09.226Z,0.30
2018-12-17T23:17:40.284Z,0.40
2018-12-17T23:20:11.582Z,0.50
2018-12-17T23:22:44.523Z,0.50
2018-12-17T23:25:16.568Z,0.40
2018-12-17T23:27:50.798Z,0.40
2018-12-17T23:30:22.330Z,0.30
2018-12-17T23:32:52.478Z,0.40
2018-12-17T23:35:22.506Z,0.40
2018-12-17T23:37:52.378Z,0.30
2018-12-17T23:40:22.555Z,0.30
2018-12-17T23:42:52.484Z,0.30
2018-12-17T23:45:22.438Z,0.30
2018-12-17T23:47:52.281Z,0.20
2018-12-17T23:50:22.234Z,0.30
2018-12-17T23:52:52.219Z,0.30
2018-12-17T23:55:22.161Z,0.30
2018-12-17T23:57:52.027Z,0.40
